Messwerte Hydaburg

Temperatur

Temperatur
°C
1618812000 22.00 22.00 12
1618815600 23.00 23.00 9
1618819200 0.00 0.00 8
1618822800 1.00 1.00 7
1618826400 2.00 2.00 6
1618830000 3.00 3.00 6
1618833600 4.00 4.00 6
1618837200 5.00 5.00 5
1618840800 6.00 6.00 4
1618844400 7.00 7.00 4
1618848000 8.00 8.00 7
1618851600 9.00 9.00 9
1618855200 10.00 10.00
1618858800 11.00 11.00 14
1618862400 12.00 12.00 16
1618866000 13.00 13.00
1618869600 14.00 14.00 17
1618873200 15.00 15.00 17
1618876800 16.00 16.00
1618880400 17.00 17.00 15
1618884000 18.00 18.00 14
1618887600 19.00 19.00
1618891200 20.00 20.00 12
1618894800 21.00 21.00 10

Aktuellste Messwerte

Wettercharakter
Wetter: klar
Temperatur
10 °C
Feuchtigkeit
75 %
Wind
20 km/hWindrichtung: Nordwest
Luftdruck
1028 hPa
Messzeit: 19. April 2021, 22.00Datenquelle: METAR

Weitere Messstationen in der Nähe

Messstation Temperatur Entfernung
Klawock 8 °C 45 km
Ketchikan 6 °C 73 km
Langara Island 7 °C 107 km
Masset - 139 km
Rose Spit 8 °C 139 km
Wrangell - 145 km
Grey Islet 9 °C 153 km

Wind

Windrichtung Böen Mittelwind
° km/h km/h
1618812000 22.00 21.00 - 22.00 60° 5
1618815600 23.00 22.00 - 23.00 0
1618819200 0.00 23.00 - 0.00 0
1618822800 1.00 0.00 - 1.00 140° 5
1618826400 2.00 1.00 - 2.00 0
1618830000 3.00 2.00 - 3.00 0
1618833600 4.00 3.00 - 4.00 0
1618837200 5.00 4.00 - 5.00 0
1618840800 6.00 5.00 - 6.00 0
1618844400 7.00 6.00 - 7.00 0
1618848000 8.00 7.00 - 8.00 0
1618851600 9.00 8.00 - 9.00 0
1618855200 10.00 9.00 - 10.00
1618858800 11.00 10.00 - 11.00 280° 5
1618862400 12.00 11.00 - 12.00 210° 10
1618866000 13.00 12.00 - 13.00
1618869600 14.00 13.00 - 14.00 220° 10
1618873200 15.00 14.00 - 15.00 230° 5
1618876800 16.00 15.00 - 16.00
1618880400 17.00 16.00 - 17.00 230° 10
1618884000 18.00 17.00 - 18.00 240° 15
1618887600 19.00 18.00 - 19.00
1618891200 20.00 19.00 - 20.00 0
1618894800 21.00 20.00 - 21.00 0

Ihre Wetterstation

Fehlt Ihre Wetterstation auf unserem Portal?

Schreiben Sie an network@meteonews.ch

Klima

Wann ist es am wärmsten? Wann regnet es am wenigsten? Unsere Klimadaten geben Auskunft.